createdAt,value
2022-09-09T00:01:41.621Z,1.20
2022-09-09T00:09:28.653Z,1.10
2022-09-09T00:12:17.420Z,1.00
2022-09-09T00:14:52.920Z,1.00
2022-09-09T00:17:46.032Z,0.90
2022-09-09T00:20:25.141Z,0.93
2022-09-09T00:23:12.726Z,1.23
2022-09-09T00:25:51.870Z,1.08
2022-09-09T00:28:24.604Z,1.10
2022-09-09T00:30:51.563Z,1.00
2022-09-09T00:33:29.251Z,1.00
2022-09-09T00:35:58.511Z,0.90
2022-09-09T00:38:47.009Z,1.17
2022-09-09T00:41:30.986Z,1.20
2022-09-09T00:44:02.043Z,1.00
2022-09-09T00:46:52.088Z,1.05
2022-09-09T00:49:47.721Z,1.15
2022-09-09T00:52:23.762Z,1.25
2022-09-09T00:55:19.948Z,1.08
2022-09-09T00:57:47.674Z,1.10
2022-09-09T01:00:24.335Z,1.00
2022-09-09T01:02:50.859Z,1.25
2022-09-09T01:05:48.375Z,0.95
2022-09-09T01:08:29.146Z,0.90
2022-09-09T01:10:55.972Z,1.10
2022-09-09T01:13:34.919Z,1.00
2022-09-09T01:16:03.997Z,0.90
2022-09-09T01:18:35.608Z,1.10
2022-09-09T01:21:31.239Z,1.10
2022-09-09T01:24:16.017Z,1.30
2022-09-09T01:26:46.611Z,1.50
2022-09-09T01:29:16.072Z,1.00
2022-09-09T01:31:53.185Z,1.00
2022-09-09T01:34:19.989Z,1.00
2022-09-09T01:37:03.385Z,1.05
2022-09-09T01:39:30.057Z,1.00
2022-09-09T01:41:57.155Z,0.90
2022-09-09T01:44:24.704Z,1.10
2022-09-09T01:46:51.364Z,0.98
2022-09-09T01:49:18.902Z,1.10
2022-09-09T01:51:47.745Z,1.23
2022-09-09T01:54:14.595Z,0.93
2022-09-09T01:56:48.488Z,1.17
2022-09-09T01:59:30.955Z,1.30
2022-09-09T02:02:19.907Z,0.93
2022-09-09T02:04:53.959Z,1.00
2022-09-09T02:07:24.469Z,1.10
2022-09-09T02:09:58.921Z,1.00
2022-09-09T02:12:26.487Z,1.10
2022-09-09T02:15:06.130Z,1.02
2022-09-09T02:17:37.381Z,1.00
2022-09-09T02:20:13.917Z,1.15
2022-09-09T02:22:43.685Z,1.10
2022-09-09T02:25:11.485Z,1.02
2022-09-09T02:27:38.005Z,0.98
2022-09-09T02:30:05.321Z,0.80
2022-09-09T02:32:33.658Z,0.88
2022-09-09T02:35:21.568Z,1.00
2022-09-09T02:37:49.202Z,0.93
2022-09-09T02:40:19.194Z,1.10
2022-09-09T02:42:47.708Z,0.90
2022-09-09T02:45:18.774Z,0.90
2022-09-09T02:47:53.229Z,1.10
2022-09-09T02:50:27.315Z,1.00
2022-09-09T02:53:00.107Z,1.00
2022-09-09T02:55:26.572Z,1.00
2022-09-09T02:57:53.944Z,1.00
2022-09-09T03:00:25.689Z,1.00
2022-09-09T03:02:52.467Z,1.20
2022-09-09T03:05:19.054Z,1.25
2022-09-09T03:07:45.853Z,1.45
2022-09-09T03:10:14.951Z,1.05
2022-09-09T03:12:41.536Z,0.90
2022-09-09T03:15:08.652Z,1.05
2022-09-09T03:17:35.310Z,1.00
2022-09-09T03:20:03.608Z,1.10
2022-09-09T03:22:30.226Z,1.20
2022-09-09T03:24:56.832Z,1.15
2022-09-09T03:27:23.372Z,1.00
2022-09-09T03:29:52.261Z,1.05
2022-09-09T03:32:19.376Z,0.90
2022-09-09T03:34:48.448Z,1.20
2022-09-09T03:37:15.287Z,1.00
2022-09-09T03:39:41.834Z,1.00
2022-09-09T03:42:08.464Z,1.00
2022-09-09T03:44:34.952Z,1.05
2022-09-09T03:47:01.760Z,1.00
2022-09-09T03:49:29.664Z,1.20
2022-09-09T03:51:58.238Z,1.05
2022-09-09T03:54:25.667Z,1.10
2022-09-09T03:56:52.351Z,1.30
2022-09-09T03:59:18.981Z,1.00
2022-09-09T04:01:46.583Z,1.23
2022-09-09T04:04:13.357Z,0.98
2022-09-09T04:06:39.987Z,0.98
2022-09-09T04:09:06.457Z,1.20
2022-09-09T04:11:35.425Z,1.13
2022-09-09T04:14:01.991Z,1.13
2022-09-09T04:16:28.704Z,1.00
2022-09-09T04:18:57.063Z,0.95
2022-09-09T04:21:24.250Z,0.95
2022-09-09T04:23:50.934Z,0.80
2022-09-09T04:26:17.591Z,1.50
2022-09-09T04:28:44.248Z,1.50
2022-09-09T04:31:31.232Z,2.00
2022-09-09T04:33:57.832Z,2.58
2022-09-09T04:36:24.464Z,2.17
2022-09-09T04:38:50.985Z,2.58
2022-09-09T04:41:17.602Z,3.00
2022-09-09T04:43:44.351Z,2.50
2022-09-09T04:46:11.310Z,2.50
2022-09-09T04:48:38.147Z,2.63
2022-09-09T04:51:06.889Z,2.40
2022-09-09T04:53:35.256Z,2.38
2022-09-09T04:56:11.043Z,2.50
2022-09-09T04:58:38.673Z,2.00
2022-09-09T05:01:13.280Z,1.80
2022-09-09T05:03:40.073Z,2.00
2022-09-09T05:06:11.813Z,1.90
2022-09-09T05:08:39.862Z,1.88
2022-09-09T05:11:29.183Z,1.95
2022-09-09T05:13:57.214Z,1.80
2022-09-09T05:16:25.533Z,1.60
2022-09-09T05:18:52.380Z,1.52
2022-09-09T05:21:22.587Z,1.70
2022-09-09T05:23:49.197Z,1.70
2022-09-09T05:26:18.080Z,1.70
2022-09-09T05:28:45.215Z,1.50
2022-09-09T05:31:14.173Z,1.65
2022-09-09T05:33:46.775Z,1.75
2022-09-09T05:36:15.985Z,1.60
2022-09-09T05:38:43.150Z,1.50
2022-09-09T05:41:12.331Z,1.50
2022-09-09T05:43:39.876Z,1.42
2022-09-09T05:46:16.457Z,1.52
2022-09-09T05:48:44.953Z,1.70
2022-09-09T05:51:18.839Z,1.30
2022-09-09T05:53:46.132Z,1.40
2022-09-09T05:56:22.765Z,1.40
2022-09-09T05:58:50.221Z,1.65
2022-09-09T06:01:19.546Z,1.17
2022-09-09T06:03:47.566Z,1.40
2022-09-09T06:06:27.664Z,1.15
2022-09-09T06:08:58.362Z,1.35
2022-09-09T06:11:27.829Z,1.53
2022-09-09T06:13:55.503Z,1.52
2022-09-09T06:16:24.810Z,1.42
2022-09-09T06:18:52.532Z,1.88
2022-09-09T06:21:23.141Z,1.40
2022-09-09T06:23:49.717Z,1.80
2022-09-09T06:26:22.010Z,1.20
2022-09-09T06:28:52.191Z,1.77
2022-09-09T06:31:26.924Z,1.50
2022-09-09T06:33:56.343Z,1.50
2022-09-09T06:36:31.976Z,1.65
2022-09-09T06:38:58.891Z,1.75
2022-09-09T06:41:32.367Z,1.40
2022-09-09T06:43:59.283Z,1.45
2022-09-09T06:46:31.400Z,1.40
2022-09-09T06:49:04.756Z,1.27
2022-09-09T06:51:36.524Z,1.30
2022-09-09T06:54:04.579Z,1.20
2022-09-09T06:56:36.451Z,1.45
2022-09-09T06:59:13.750Z,1.23
2022-09-09T07:01:42.864Z,1.40
2022-09-09T07:04:10.469Z,1.77
2022-09-09T07:06:39.305Z,1.48
2022-09-09T07:09:09.725Z,1.60
2022-09-09T07:11:44.884Z,1.40
2022-09-09T07:14:30.293Z,1.30
2022-09-09T07:17:03.213Z,1.58
2022-09-09T07:19:29.832Z,1.30
2022-09-09T07:21:56.513Z,1.23
2022-09-09T07:24:23.369Z,1.30
2022-09-09T07:26:50.067Z,1.30
2022-09-09T07:29:20.609Z,1.48
2022-09-09T07:31:48.755Z,1.50
2022-09-09T07:34:15.530Z,1.30
2022-09-09T07:36:43.186Z,1.48
2022-09-09T07:39:14.138Z,1.33
2022-09-09T07:41:46.363Z,0.95
2022-09-09T07:44:15.940Z,1.38
2022-09-09T07:46:42.695Z,1.42
2022-09-09T07:49:10.434Z,1.30
2022-09-09T07:51:39.868Z,1.27
2022-09-09T07:54:10.809Z,1.17
2022-09-09T07:56:40.184Z,1.20
2022-09-09T07:59:10.263Z,0.90
2022-09-09T08:01:46.114Z,0.98
2022-09-09T08:04:18.157Z,1.10
2022-09-09T08:06:53.952Z,1.20
2022-09-09T08:09:30.805Z,0.90
2022-09-09T08:11:59.193Z,1.10
2022-09-09T08:14:25.819Z,1.30
2022-09-09T08:16:55.270Z,1.00
2022-09-09T08:19:22.000Z,0.90
2022-09-09T08:21:50.024Z,0.98
2022-09-09T08:24:16.681Z,0.90
2022-09-09T08:26:45.421Z,1.00
2022-09-09T08:29:14.997Z,1.00
2022-09-09T08:31:45.486Z,0.90
2022-09-09T08:34:33.219Z,0.90
2022-09-09T08:37:06.240Z,0.80
2022-09-09T08:39:40.687Z,0.80
2022-09-09T08:42:29.358Z,1.10
2022-09-09T08:45:04.845Z,0.90
2022-09-09T08:47:55.946Z,0.90
2022-09-09T08:50:32.321Z,0.80
2022-09-09T08:53:13.861Z,1.00
2022-09-09T08:55:49.923Z,0.95
2022-09-09T08:58:20.652Z,1.13
2022-09-09T09:01:01.332Z,1.00
2022-09-09T09:03:53.355Z,0.80
2022-09-09T09:06:32.035Z,0.80
2022-09-09T09:09:03.357Z,0.70
2022-09-09T09:11:40.440Z,1.00
2022-09-09T09:14:24.671Z,0.90
2022-09-09T09:16:55.743Z,0.80
2022-09-09T09:19:27.258Z,0.90
2022-09-09T09:22:01.145Z,0.90
2022-09-09T09:24:52.735Z,0.90
2022-09-09T09:27:31.594Z,0.93
2022-09-09T09:30:22.829Z,0.77
2022-09-09T09:33:25.542Z,0.90
2022-09-09T09:35:52.498Z,0.90
2022-09-09T09:41:36.619Z,0.73
2022-09-09T09:44:25.648Z,0.85
2022-09-09T09:46:52.922Z,0.90
2022-09-09T09:49:19.890Z,0.80
2022-09-09T09:51:47.854Z,0.88
2022-09-09T09:54:24.440Z,0.70
2022-09-09T09:56:51.675Z,0.60
2022-09-09T09:59:38.659Z,0.80
2022-09-09T10:02:27.479Z,0.70
2022-09-09T10:05:16.622Z,0.80
2022-09-09T10:07:46.987Z,0.73
2022-09-09T10:10:22.190Z,0.73
2022-09-09T10:13:04.727Z,0.77
2022-09-09T10:15:53.612Z,0.82
2022-09-09T10:18:34.980Z,0.60
2022-09-09T10:21:22.130Z,0.50
2022-09-09T10:24:07.479Z,0.90
2022-09-09T10:26:52.244Z,0.70
2022-09-09T10:29:22.426Z,0.63
2022-09-09T10:32:37.190Z,0.75
2022-09-09T10:35:21.132Z,0.82
2022-09-09T10:37:58.647Z,0.70
2022-09-09T10:40:35.181Z,0.70
2022-09-09T10:43:35.102Z,0.70
2022-09-09T10:46:29.949Z,0.73
2022-09-09T10:49:34.270Z,0.70
2022-09-09T10:52:30.975Z,0.70
2022-09-09T10:55:01.740Z,0.70
2022-09-09T10:57:47.809Z,0.80
2022-09-09T11:00:37.066Z,0.70
2022-09-09T11:03:05.147Z,0.70
2022-09-09T11:05:44.109Z,0.90
2022-09-09T11:08:16.802Z,0.90
2022-09-09T11:11:05.998Z,0.70
2022-09-09T11:13:57.863Z,0.65
2022-09-09T11:16:34.021Z,0.70
2022-09-09T11:19:06.843Z,0.77
2022-09-09T11:21:38.029Z,0.65
2022-09-09T11:26:46.344Z,1.02
2022-09-09T11:29:25.058Z,1.00
2022-09-09T11:31:57.298Z,0.70
2022-09-09T11:34:39.621Z,0.65
2022-09-09T11:37:30.881Z,0.85
2022-09-09T11:42:39.473Z,0.70
2022-09-09T11:45:21.358Z,0.73
2022-09-09T11:47:56.155Z,0.80
2022-09-09T11:50:22.749Z,0.70
2022-09-09T11:52:50.538Z,0.70
2022-09-09T11:55:34.330Z,0.57
2022-09-09T11:58:17.181Z,0.60
2022-09-09T12:00:49.689Z,0.73
2022-09-09T12:03:41.122Z,0.60
2022-09-09T12:06:15.392Z,0.60
2022-09-09T12:08:50.063Z,0.70
2022-09-09T12:11:26.675Z,0.60
2022-09-09T12:13:58.334Z,0.77
2022-09-09T12:16:36.318Z,0.70
2022-09-09T12:19:08.039Z,0.70
2022-09-09T12:22:19.379Z,0.80
2022-09-09T12:24:57.450Z,0.60
2022-09-09T12:27:38.360Z,0.60
2022-09-09T12:30:11.048Z,0.60
2022-09-09T12:32:39.047Z,0.75
2022-09-09T12:35:08.291Z,0.63
2022-09-09T12:37:50.082Z,0.82
2022-09-09T12:40:24.023Z,0.70
2022-09-09T12:42:51.332Z,0.60
2022-09-09T12:45:28.547Z,0.60
2022-09-09T12:47:56.840Z,0.52
2022-09-09T12:50:26.638Z,0.65
2022-09-09T12:52:56.172Z,0.73
2022-09-09T12:55:26.185Z,0.70
2022-09-09T12:57:53.292Z,0.93
2022-09-09T13:00:25.017Z,0.65
2022-09-09T13:03:02.637Z,0.60
2022-09-09T13:05:36.189Z,0.60
2022-09-09T13:08:11.211Z,0.70
2022-09-09T13:10:54.549Z,0.60
2022-09-09T13:13:25.600Z,0.60
2022-09-09T13:15:57.930Z,0.73
2022-09-09T13:18:27.889Z,0.68
2022-09-09T13:20:54.593Z,0.63
2022-09-09T13:23:21.876Z,0.60
2022-09-09T13:26:01.078Z,0.70
2022-09-09T13:28:33.737Z,0.70
2022-09-09T13:31:03.498Z,0.60
2022-09-09T13:33:32.234Z,0.70
2022-09-09T13:36:07.826Z,0.70
2022-09-09T13:38:39.203Z,0.80
2022-09-09T13:41:10.218Z,0.50
2022-09-09T13:43:39.949Z,0.50
2022-09-09T13:46:25.459Z,0.70
2022-09-09T13:48:59.191Z,0.77
2022-09-09T13:51:38.186Z,0.80
2022-09-09T13:54:10.352Z,0.70
2022-09-09T13:56:38.320Z,0.90
2022-09-09T13:59:06.875Z,0.90
2022-09-09T14:01:35.893Z,0.77
2022-09-09T14:04:02.629Z,1.13
2022-09-09T14:06:30.218Z,1.10
2022-09-09T14:08:56.762Z,1.05
2022-09-09T14:11:23.251Z,0.88
2022-09-09T14:13:53.021Z,1.10
2022-09-09T14:16:19.929Z,1.25
2022-09-09T14:18:46.755Z,1.00
2022-09-09T14:21:13.316Z,1.05
2022-09-09T14:23:39.871Z,1.20
2022-09-09T14:26:07.054Z,1.02
2022-09-09T14:31:21.951Z,1.00
2022-09-09T14:33:49.207Z,0.93
2022-09-09T14:36:16.158Z,0.90
2022-09-09T14:38:43.776Z,1.20
2022-09-09T14:41:12.291Z,1.00
2022-09-09T14:43:42.244Z,1.00
2022-09-09T14:46:11.101Z,1.00
2022-09-09T14:48:38.526Z,0.90
2022-09-09T14:51:29.023Z,1.00
2022-09-09T14:53:58.841Z,1.00
2022-09-09T14:56:28.221Z,1.15
2022-09-09T14:58:56.528Z,1.10
2022-09-09T15:01:23.879Z,1.08
2022-09-09T15:03:54.006Z,0.95
2022-09-09T15:06:21.787Z,0.93
2022-09-09T15:08:48.811Z,1.13
2022-09-09T15:11:15.729Z,1.00
2022-09-09T15:13:43.584Z,1.15
2022-09-09T15:16:15.764Z,1.10
2022-09-09T15:18:43.942Z,1.17
2022-09-09T15:21:14.593Z,1.08
2022-09-09T15:23:41.391Z,1.23
2022-09-09T15:26:09.131Z,1.30
2022-09-09T15:28:38.892Z,1.30
2022-09-09T15:31:08.319Z,1.30
2022-09-09T15:33:35.193Z,1.42
2022-09-09T15:36:01.913Z,1.20
2022-09-09T15:38:28.415Z,1.30
2022-09-09T15:40:56.461Z,1.20
2022-09-09T15:43:23.169Z,1.13
2022-09-09T15:45:55.345Z,1.23
2022-09-09T15:48:31.194Z,1.25
2022-09-09T15:51:19.506Z,1.30
2022-09-09T15:53:59.032Z,1.40
2022-09-09T15:56:28.149Z,1.30
2022-09-09T15:58:56.156Z,1.40
2022-09-09T16:01:22.669Z,1.30
2022-09-09T16:03:51.090Z,1.65
2022-09-09T16:06:22.527Z,1.30
2022-09-09T16:08:53.465Z,1.52
2022-09-09T16:11:21.169Z,1.30
2022-09-09T16:13:51.170Z,1.60
2022-09-09T16:16:20.632Z,1.45
2022-09-09T16:18:48.687Z,1.40
2022-09-09T16:21:17.676Z,1.40
2022-09-09T16:23:45.025Z,1.40
2022-09-09T16:26:16.053Z,1.45
2022-09-09T16:28:42.821Z,1.40
2022-09-09T16:31:11.600Z,1.83
2022-09-09T16:33:38.847Z,1.70
2022-09-09T16:36:13.357Z,1.45
2022-09-09T16:38:40.168Z,1.50
2022-09-09T16:41:07.664Z,5.20
2022-09-09T16:43:36.157Z,3.00
2022-09-09T16:46:10.915Z,2.22
2022-09-09T16:48:37.493Z,2.20
2022-09-09T16:51:11.800Z,2.45
2022-09-09T16:53:38.406Z,1.70
2022-09-09T16:56:09.733Z,1.77
2022-09-09T16:58:36.634Z,1.60
2022-09-09T17:01:04.207Z,1.63
2022-09-09T17:03:32.250Z,1.50
2022-09-09T17:06:02.813Z,1.67
2022-09-09T17:08:32.578Z,1.60
2022-09-09T17:11:00.121Z,1.40
2022-09-09T17:13:26.650Z,1.33
2022-09-09T17:15:53.239Z,1.40
2022-09-09T17:18:20.352Z,1.30
2022-09-09T17:20:47.379Z,1.30
2022-09-09T17:23:16.919Z,1.80
2022-09-09T17:25:44.297Z,1.10
2022-09-09T17:28:10.786Z,1.40
2022-09-09T17:30:37.920Z,1.30
2022-09-09T17:33:05.427Z,1.42
2022-09-09T17:35:32.331Z,1.42
2022-09-09T17:37:59.106Z,1.10
2022-09-09T17:40:25.609Z,1.40
2022-09-09T17:42:52.311Z,1.20
2022-09-09T17:45:18.987Z,1.00
2022-09-09T17:47:45.582Z,1.25
2022-09-09T17:50:13.846Z,1.30
2022-09-09T17:52:41.640Z,1.42
2022-09-09T17:55:10.213Z,1.10
2022-09-09T17:57:36.703Z,1.13
2022-09-09T18:00:06.580Z,1.40
2022-09-09T18:02:33.312Z,1.60
2022-09-09T18:05:00.000Z,1.30
2022-09-09T18:07:26.470Z,1.30
2022-09-09T18:09:52.981Z,1.30
2022-09-09T18:12:19.482Z,1.23
2022-09-09T18:14:45.949Z,1.33
2022-09-09T18:17:12.854Z,1.40
2022-09-09T18:19:39.341Z,1.20
2022-09-09T18:22:06.888Z,1.35
2022-09-09T18:24:33.797Z,1.85
2022-09-09T18:27:00.936Z,1.42
2022-09-09T18:29:27.526Z,1.45
2022-09-09T18:31:54.977Z,1.50
2022-09-09T18:34:23.140Z,1.20
2022-09-09T18:36:55.152Z,1.40
2022-09-09T18:39:25.056Z,1.30
2022-09-09T18:41:53.975Z,1.20
2022-09-09T18:44:23.384Z,1.17
2022-09-09T18:46:50.149Z,1.35
2022-09-09T18:49:16.987Z,1.23
2022-09-09T18:51:44.930Z,1.30
2022-09-09T18:54:23.073Z,1.23
2022-09-09T18:56:49.803Z,1.10
2022-09-09T18:59:21.875Z,1.00
2022-09-09T19:01:50.547Z,1.20
2022-09-09T19:04:18.032Z,1.40
2022-09-09T19:06:46.723Z,1.50
2022-09-09T19:09:16.043Z,1.30
2022-09-09T19:11:43.177Z,1.25
2022-09-09T19:14:12.489Z,1.13
2022-09-09T19:16:40.604Z,0.90
2022-09-09T19:19:17.128Z,1.20
2022-09-09T19:21:44.464Z,1.25
2022-09-09T19:24:12.252Z,1.10
2022-09-09T19:26:41.814Z,1.23
2022-09-09T19:29:10.248Z,1.33
2022-09-09T19:31:37.699Z,1.15
2022-09-09T19:34:04.742Z,1.27
2022-09-09T19:36:31.583Z,1.00
2022-09-09T19:38:58.561Z,1.10
2022-09-09T19:41:26.920Z,1.10
2022-09-09T19:43:57.371Z,1.33
2022-09-09T19:46:23.994Z,1.38
2022-09-09T19:48:50.682Z,1.40
2022-09-09T19:51:20.268Z,1.90
2022-09-09T19:53:49.146Z,1.65
2022-09-09T19:56:17.232Z,1.83
2022-09-09T19:58:45.828Z,2.20
2022-09-09T20:01:15.109Z,3.13
2022-09-09T20:03:43.649Z,2.75
2022-09-09T20:06:12.398Z,2.80
2022-09-09T20:08:40.179Z,3.05
2022-09-09T20:11:07.844Z,2.45
2022-09-09T20:13:36.408Z,2.30
2022-09-09T20:16:14.256Z,2.13
2022-09-09T20:18:46.155Z,1.70
2022-09-09T20:21:17.504Z,1.60
2022-09-09T20:23:44.288Z,1.90
2022-09-09T20:26:13.014Z,1.85
2022-09-09T20:28:41.224Z,1.83
2022-09-09T20:31:10.059Z,2.13
2022-09-09T20:33:36.860Z,2.28
2022-09-09T20:36:27.294Z,2.70
2022-09-09T20:38:57.802Z,3.03
2022-09-09T20:41:27.851Z,3.38
2022-09-09T20:44:03.629Z,3.58
2022-09-09T20:46:36.383Z,2.80
2022-09-09T20:49:04.631Z,2.50
2022-09-09T20:51:33.222Z,2.70
2022-09-09T20:54:08.563Z,2.47
2022-09-09T20:56:38.822Z,3.13
2022-09-09T20:59:11.427Z,2.50
2022-09-09T21:01:39.067Z,2.00
2022-09-09T21:04:06.790Z,2.00
2022-09-09T21:06:33.295Z,2.10
2022-09-09T21:08:59.903Z,1.92
2022-09-09T21:11:26.469Z,1.90
2022-09-09T21:13:53.054Z,2.58
2022-09-09T21:16:21.179Z,2.17
2022-09-09T21:18:51.148Z,2.30
2022-09-09T21:21:21.875Z,1.83
2022-09-09T21:23:49.829Z,1.80
2022-09-09T21:26:18.154Z,1.70
2022-09-09T21:28:44.740Z,1.55
2022-09-09T21:31:14.839Z,1.60
2022-09-09T21:33:41.902Z,1.45
2022-09-09T21:36:10.373Z,1.48
2022-09-09T21:38:37.551Z,1.30
2022-09-09T21:41:05.262Z,1.40
2022-09-09T21:43:32.192Z,1.05
2022-09-09T21:45:58.874Z,1.20
2022-09-09T21:48:26.372Z,1.52
2022-09-09T21:50:53.730Z,1.15
2022-09-09T21:53:20.787Z,1.33
2022-09-09T21:55:48.736Z,1.20
2022-09-09T21:58:16.375Z,1.10
2022-09-09T22:00:45.530Z,1.48
2022-09-09T22:03:13.849Z,1.35
2022-09-09T22:05:45.043Z,1.63
2022-09-09T22:08:13.305Z,1.83
2022-09-09T22:10:42.275Z,1.90
2022-09-09T22:13:08.863Z,1.90
2022-09-09T22:15:36.406Z,1.83
2022-09-09T22:18:04.121Z,2.00
2022-09-09T22:20:35.047Z,2.00
2022-09-09T22:23:01.893Z,2.13
2022-09-09T22:25:32.440Z,1.65
2022-09-09T22:27:59.054Z,1.50
2022-09-09T22:30:25.751Z,1.48
2022-09-09T22:32:52.259Z,1.70
2022-09-09T22:35:18.994Z,1.60
2022-09-09T22:37:45.570Z,1.60
2022-09-09T22:40:14.103Z,1.85
2022-09-09T22:42:41.851Z,1.45
2022-09-09T22:45:09.744Z,1.50
2022-09-09T22:47:36.879Z,1.20
2022-09-09T22:50:04.381Z,1.63
2022-09-09T22:52:33.637Z,1.60
2022-09-09T22:55:00.409Z,1.63
2022-09-09T22:57:27.002Z,2.13
2022-09-09T22:59:53.637Z,1.80
2022-09-09T23:02:21.708Z,1.83
2022-09-09T23:04:48.874Z,1.90
2022-09-09T23:07:19.836Z,1.70
2022-09-09T23:09:47.658Z,1.88
2022-09-09T23:12:14.887Z,1.80
2022-09-09T23:14:41.664Z,1.90
2022-09-09T23:17:08.827Z,1.80
2022-09-09T23:19:37.341Z,2.10
2022-09-09T23:22:03.962Z,1.67
2022-09-09T23:24:30.477Z,1.45
2022-09-09T23:26:57.048Z,1.73
2022-09-09T23:29:23.605Z,1.75
2022-09-09T23:31:50.087Z,1.67
2022-09-09T23:34:16.661Z,1.60
2022-09-09T23:36:43.221Z,1.48
2022-09-09T23:39:11.555Z,1.50
2022-09-09T23:41:38.063Z,1.35
2022-09-09T23:44:05.109Z,1.33
2022-09-09T23:46:32.537Z,1.40
2022-09-09T23:48:59.484Z,1.40
2022-09-09T23:51:28.126Z,1.42
2022-09-09T23:53:57.170Z,1.70
2022-09-09T23:56:29.161Z,1.60
2022-09-09T23:58:55.913Z,1.23
